Stanitsa Kanevskaya, Russia
Current Conditions -  °F | °C
As of 7:00 PM on Sunday 23 Nov 2014 (Local Time) from URKK Reporting Station
Broken Clouds Broken Clouds  
Wind Chill: 21°   Ceiling: 10000
Heat Index: 30°   Visibility: 6mi
Dew Point: 23°   Wind: 11mph
Humidity: 75%   Direction: 70°ENE
Pressure: 30.27"   Gusts: 18mph
Location:  46.07°N, 38.97°E
Report Text: URKK 231600Z 07005G08MPS 9999 SCT026 BKN100 M01/M05 Q1025 NOSIGRMK QFE766 SC070
Loading
Personal Weather Stations






























Interactive Weather Map New forecast layout! Learn more

10-Day Weather Forecast

Advertisements
Track Severe Weather on mobile